Time,TemperatureF,DewpointF,PressureIn,WindDirection,WindDirectionDegrees,WindSpeedMPH,WindSpeedGustMPH,Humidity,HourlyPrecipIn,Conditions,Clouds,dailyrainin,SolarRadiationWatts/m^2,SoftwareType,DateUTC
2013-02-18 00:13:00,28.3,6.0,29.65,SW,234,1.0,5.0,39,0.00,,,0.00,0,weatherlink.com 1.10,2013-02-18 07:13:00,
2013-02-18 00:28:00,27.5,7.0,29.66,West,279,2.0,2.0,42,0.00,,,0.00,0,weatherlink.com 1.10,2013-02-18 07:28:00,
2013-02-18 00:43:00,27.7,8.0,29.66,West,263,0.0,3.0,43,0.00,,,0.00,0,weatherlink.com 1.10,2013-02-18 07:43:00,
2013-02-18 00:58:00,27.1,7.0,29.65,North,360,0.0,1.0,42,0.00,,,0.00,0,weatherlink.com 1.10,2013-02-18 07:58:00,
2013-02-18 01:13:00,27.1,6.0,29.65,NW,313,0.0,3.0,41,0.00,,,0.00,0,weatherlink.com 1.10,2013-02-18 08:13:00,
2013-02-18 01:28:00,25.9,7.0,29.66,West,268,0.0,2.0,45,0.00,,,0.00,0,weatherlink.com 1.10,2013-02-18 08:28:00,
2013-02-18 01:43:00,25.6,6.0,29.64,WSW,254,1.0,3.0,44,0.00,,,0.00,0,weatherlink.com 1.10,2013-02-18 08:43:00,
2013-02-18 01:58:00,24.9,7.0,29.65,WNW,296,2.0,4.0,46,0.00,,,0.00,0,weatherlink.com 1.10,2013-02-18 08:58:00,
2013-02-18 02:13:00,24.5,7.0,29.64,WNW,296,1.0,5.0,48,0.00,,,0.00,0,weatherlink.com 1.10,2013-02-18 09:13:00,
2013-02-18 02:28:00,24.5,7.0,29.63,WNW,286,0.0,3.0,48,0.00,,,0.00,0,weatherlink.com 1.10,2013-02-18 09:28:00,
2013-02-18 02:43:00,24.5,8.0,29.62,WSW,256,4.0,5.0,49,0.00,,,0.00,0,weatherlink.com 1.10,2013-02-18 09:43:00,
2013-02-18 02:58:00,24.8,8.0,29.61,WNW,300,1.0,6.0,49,0.00,,,0.00,0,weatherlink.com 1.10,2013-02-18 09:58:00,
2013-02-18 03:13:00,24.8,8.0,29.61,WNW,303,3.0,8.0,50,0.00,,,0.00,0,weatherlink.com 1.10,2013-02-18 10:13:00,
2013-02-18 03:29:00,24.7,9.0,29.63,SW,224,3.0,6.0,51,0.00,,,0.00,0,weatherlink.com 1.10,2013-02-18 10:29:00,
2013-02-18 03:44:00,24.3,8.0,29.63,WNW,296,2.0,6.0,50,0.00,,,0.00,0,weatherlink.com 1.10,2013-02-18 10:44:00,
2013-02-18 03:59:00,24.1,8.0,29.63,WNW,302,1.0,9.0,50,0.00,,,0.00,0,weatherlink.com 1.10,2013-02-18 10:59:00,
2013-02-18 04:14:00,22.9,8.0,29.64,WNW,290,1.0,5.0,52,0.00,,,0.00,0,weatherlink.com 1.10,2013-02-18 11:14:00,
2013-02-18 04:29:00,22.1,8.0,29.64,WNW,291,1.0,3.0,54,0.00,,,0.00,0,weatherlink.com 1.10,2013-02-18 11:29:00,
2013-02-18 04:44:00,21.6,8.0,29.65,SSW,205,0.0,2.0,56,0.00,,,0.00,0,weatherlink.com 1.10,2013-02-18 11:44:00,
2013-02-18 04:59:00,20.9,9.0,29.65,South,185,1.0,4.0,59,0.00,,,0.00,0,weatherlink.com 1.10,2013-02-18 11:59:00,
2013-02-18 05:14:00,22.5,10.0,29.67,WNW,292,5.0,9.0,58,0.00,,,0.00,0,weatherlink.com 1.10,2013-02-18 12:14:00,
2013-02-18 05:29:00,22.9,10.0,29.68,West,263,0.0,11.0,58,0.00,,,0.00,0,weatherlink.com 1.10,2013-02-18 12:29:00,
2013-02-18 05:44:00,22.4,10.0,29.69,WNW,298,2.0,6.0,58,0.00,,,0.00,0,weatherlink.com 1.10,2013-02-18 12:44:00,
2013-02-18 05:59:00,21.9,8.0,29.70,West,268,0.0,13.0,55,0.00,,,0.00,0,weatherlink.com 1.10,2013-02-18 12:59:00,
2013-02-18 06:29:00,20.4,7.0,29.72,SW,222,4.0,16.0,56,0.00,,,0.00,0,weatherlink.com 1.10,2013-02-18 13:29:00,
2013-02-18 06:44:00,19.8,6.0,29.74,WNW,300,0.0,5.0,56,0.00,,,0.00,0,weatherlink.com 1.10,2013-02-18 13:44:00,
2013-02-18 06:59:00,19.3,6.0,29.76,WSW,256,0.0,5.0,56,0.00,,,0.00,9,weatherlink.com 1.10,2013-02-18 13:59:00,
2013-02-18 07:14:00,18.9,5.0,29.77,SW,235,1.0,2.0,56,0.00,,,0.00,19,weatherlink.com 1.10,2013-02-18 14:14:00,
2013-02-18 07:29:00,19.1,6.0,29.79,WSW,258,0.0,2.0,58,0.00,,,0.00,53,weatherlink.com 1.10,2013-02-18 14:29:00,
2013-02-18 07:44:00,19.1,6.0,29.81,WSW,258,2.0,3.0,56,0.00,,,0.00,58,weatherlink.com 1.10,2013-02-18 14:44:00,
2013-02-18 07:59:00,18.8,5.0,29.82,WSW,254,1.0,5.0,56,0.00,,,0.00,28,weatherlink.com 1.10,2013-02-18 14:59:00,
2013-02-18 08:14:00,18.4,6.0,29.83,West,278,0.0,2.0,58,0.00,,,0.00,63,weatherlink.com 1.10,2013-02-18 15:14:00,
2013-02-18 08:30:00,18.9,5.0,29.83,WSW,254,1.0,4.0,55,0.00,,,0.00,49,weatherlink.com 1.10,2013-02-18 15:30:00,
2013-02-18 08:45:00,19.3,5.0,29.84,West,276,2.0,3.0,55,0.00,,,0.00,46,weatherlink.com 1.10,2013-02-18 15:45:00,
2013-02-18 09:00:00,19.8,5.0,29.84,WSW,254,2.0,6.0,53,0.00,,,0.00,51,weatherlink.com 1.10,2013-02-18 16:00:00,
2013-02-18 09:15:00,20.3,6.0,29.85,WNW,299,1.0,5.0,53,0.00,,,0.00,77,weatherlink.com 1.10,2013-02-18 16:15:00,
2013-02-18 09:30:00,18.9,7.0,29.86,SW,232,0.0,4.0,61,0.00,,,0.00,100,weatherlink.com 1.10,2013-02-18 16:30:00,
2013-02-18 09:45:00,19.8,7.0,29.86,North,360,0.0,2.0,58,0.00,,,0.00,591,weatherlink.com 1.10,2013-02-18 16:45:00,
2013-02-18 10:00:00,20.9,7.0,29.86,North,360,1.0,3.0,55,0.00,,,0.00,571,weatherlink.com 1.10,2013-02-18 17:00:00,
2013-02-18 10:15:00,22.7,8.0,29.87,North,360,0.0,3.0,54,0.00,,,0.00,606,weatherlink.com 1.10,2013-02-18 17:15:00,
2013-02-18 10:30:00,24.4,9.0,29.88,North,360,3.0,7.0,51,0.00,,,0.00,642,weatherlink.com 1.10,2013-02-18 17:30:00,
2013-02-18 10:45:00,25.9,9.0,29.88,North,360,4.0,7.0,49,0.00,,,0.00,677,weatherlink.com 1.10,2013-02-18 17:45:00,
2013-02-18 11:00:00,26.7,8.0,29.89,North,360,1.0,5.0,46,0.00,,,0.00,696,weatherlink.com 1.10,2013-02-18 18:00:00,
2013-02-18 11:15:00,26.9,6.0,29.90,North,360,4.0,7.0,42,0.00,,,0.00,719,weatherlink.com 1.10,2013-02-18 18:15:00,
2013-02-18 11:45:00,27.3,6.0,29.90,North,360,5.0,7.0,40,0.00,,,0.00,758,weatherlink.com 1.10,2013-02-18 18:45:00,
2013-02-18 12:00:00,27.6,6.0,29.90,North,360,2.0,8.0,40,0.00,,,0.00,770,weatherlink.com 1.10,2013-02-18 19:00:00,
2013-02-18 12:15:00,28.0,6.0,29.90,North,360,5.0,14.0,39,0.00,,,0.00,777,weatherlink.com 1.10,2013-02-18 19:15:00,
2013-02-18 12:30:00,28.0,3.0,29.91,North,360,3.0,9.0,34,0.00,,,0.00,779,weatherlink.com 1.10,2013-02-18 19:30:00,
2013-02-18 12:45:00,29.1,5.0,29.90,North,360,3.0,8.0,35,0.00,,,0.00,777,weatherlink.com 1.10,2013-02-18 19:45:00,
2013-02-18 13:00:00,29.5,2.0,29.90,North,360,2.0,8.0,31,0.00,,,0.00,773,weatherlink.com 1.10,2013-02-18 20:00:00,
2013-02-18 13:15:00,30.3,1.0,29.90,North,360,2.0,8.0,29,0.00,,,0.00,763,weatherlink.com 1.10,2013-02-18 20:15:00,
2013-02-18 13:30:00,30.4,3.0,29.91,North,360,3.0,7.0,31,0.00,,,0.00,745,weatherlink.com 1.10,2013-02-18 20:30:00,
2013-02-18 13:45:00,30.5,2.0,29.91,North,360,3.0,8.0,30,0.00,,,0.00,728,weatherlink.com 1.10,2013-02-18 20:45:00,
2013-02-18 14:00:00,31.1,3.0,29.91,North,360,5.0,8.0,30,0.00,,,0.00,703,weatherlink.com 1.10,2013-02-18 21:00:00,
2013-02-18 14:16:00,30.8,3.0,29.92,North,360,2.0,13.0,30,0.00,,,0.00,679,weatherlink.com 1.10,2013-02-18 21:16:00,
2013-02-18 14:31:00,30.5,3.0,29.93,North,360,3.0,7.0,31,0.00,,,0.00,645,weatherlink.com 1.10,2013-02-18 21:31:00,
2013-02-18 14:46:00,31.3,5.0,29.93,North,360,3.0,8.0,33,0.00,,,0.00,454,weatherlink.com 1.10,2013-02-18 21:46:00,
2013-02-18 15:01:00,31.0,4.0,29.95,WNW,301,1.0,7.0,32,0.00,,,0.00,561,weatherlink.com 1.10,2013-02-18 22:01:00,
2013-02-18 15:16:00,31.4,6.0,29.95,WSW,240,5.0,6.0,34,0.00,,,0.00,529,weatherlink.com 1.10,2013-02-18 22:16:00,
2013-02-18 15:31:00,31.2,3.0,29.95,WNW,295,1.0,9.0,30,0.00,,,0.00,485,weatherlink.com 1.10,2013-02-18 22:31:00,
2013-02-18 15:46:00,31.2,2.0,29.96,WNW,286,2.0,7.0,29,0.00,,,0.00,438,weatherlink.com 1.10,2013-02-18 22:46:00,
2013-02-18 16:01:00,30.9,2.0,29.96,West,262,3.0,6.0,29,0.00,,,0.00,387,weatherlink.com 1.10,2013-02-18 23:01:00,
2013-02-18 16:16:00,30.8,0.0,29.97,North,360,3.0,7.0,27,0.00,,,0.00,279,weatherlink.com 1.10,2013-02-18 23:16:00,
2013-02-18 16:31:00,30.2,1.0,29.97,North,360,1.0,5.0,28,0.00,,,0.00,86,weatherlink.com 1.10,2013-02-18 23:31:00,
2013-02-18 16:46:00,29.8,2.0,29.97,North,360,1.0,7.0,30,0.00,,,0.00,54,weatherlink.com 1.10,2013-02-18 23:46:00,
2013-02-18 17:01:00,29.3,0.0,29.98,West,279,6.0,6.0,28,0.00,,,0.00,39,weatherlink.com 1.10,2013-02-19 00:01:00,
2013-02-18 17:16:00,28.7,1.0,29.98,WSW,240,3.0,6.0,30,0.00,,,0.00,28,weatherlink.com 1.10,2013-02-19 00:16:00,
2013-02-18 17:31:00,28.2,2.0,29.99,North,360,0.0,9.0,32,0.00,,,0.00,16,weatherlink.com 1.10,2013-02-19 00:31:00,
2013-02-18 17:46:00,27.1,0.0,30.00,SW,228,3.0,6.0,31,0.00,,,0.00,5,weatherlink.com 1.10,2013-02-19 00:46:00,
2013-02-18 18:01:00,26.7,2.0,30.00,SW,234,2.0,5.0,34,0.00,,,0.00,0,weatherlink.com 1.10,2013-02-19 01:01:00,
2013-02-18 18:16:00,26.1,1.0,30.02,WSW,250,0.0,5.0,34,0.00,,,0.00,0,weatherlink.com 1.10,2013-02-19 01:16:00,
2013-02-18 18:31:00,25.8,2.0,30.03,West,275,0.0,5.0,35,0.00,,,0.00,0,weatherlink.com 1.10,2013-02-19 01:31:00,
2013-02-18 18:46:00,24.9,1.0,30.03,North,360,3.0,4.0,35,0.00,,,0.00,0,weatherlink.com 1.10,2013-02-19 01:46:00,
2013-02-18 19:02:00,24.8,-1.0,30.04,North,360,0.0,5.0,33,0.00,,,0.00,0,weatherlink.com 1.10,2013-02-19 02:02:00,
2013-02-18 19:17:00,24.7,-1.0,30.05,WSW,240,1.0,4.0,33,0.00,,,0.00,0,weatherlink.com 1.10,2013-02-19 02:17:00,
2013-02-18 19:32:00,24.7,0.0,30.06,WSW,250,3.0,5.0,34,0.00,,,0.00,0,weatherlink.com 1.10,2013-02-19 02:32:00,
2013-02-18 19:47:00,24.4,0.0,30.06,West,263,0.0,6.0,34,0.00,,,0.00,0,weatherlink.com 1.10,2013-02-19 02:47:00,
2013-02-18 20:02:00,24.1,0.0,30.07,WSW,257,0.0,6.0,35,0.00,,,0.00,0,weatherlink.com 1.10,2013-02-19 03:02:00,
2013-02-18 20:17:00,24.1,-1.0,30.08,WNW,292,0.0,7.0,34,0.00,,,0.00,0,weatherlink.com 1.10,2013-02-19 03:17:00,
2013-02-18 20:32:00,23.3,-1.0,30.09,NE,42,0.0,3.0,35,0.00,,,0.00,0,weatherlink.com 1.10,2013-02-19 03:32:00,
2013-02-18 20:47:00,21.7,-1.0,30.10,ENE,67,0.0,2.0,37,0.00,,,0.00,0,weatherlink.com 1.10,2013-02-19 03:47:00,
2013-02-18 21:02:00,21.7,0.0,30.11,ENE,67,0.0,1.0,38,0.00,,,0.00,0,weatherlink.com 1.10,2013-02-19 04:02:00,
2013-02-18 21:17:00,21.0,0.0,30.11,SSW,209,2.0,3.0,40,0.00,,,0.00,0,weatherlink.com 1.10,2013-02-19 04:17:00,
2013-02-18 21:32:00,21.4,1.0,30.11,WNW,283,0.0,4.0,41,0.00,,,0.00,0,weatherlink.com 1.10,2013-02-19 04:32:00,
2013-02-18 21:47:00,20.2,0.0,30.12,SW,224,0.0,1.0,42,0.00,,,0.00,0,weatherlink.com 1.10,2013-02-19 04:47:00,
2013-02-18 22:02:00,19.3,1.0,30.12,SSW,204,0.0,1.0,44,0.00,,,0.00,0,weatherlink.com 1.10,2013-02-19 05:02:00,
2013-02-18 22:18:00,19.0,0.0,30.12,SE,141,0.0,2.0,43,0.00,,,0.00,0,weatherlink.com 1.10,2013-02-19 05:18:00,
2013-02-18 22:33:00,19.0,-1.0,30.13,SE,137,0.0,1.0,42,0.00,,,0.00,0,weatherlink.com 1.10,2013-02-19 05:33:00,
2013-02-18 22:48:00,19.6,0.0,30.14,ESE,123,0.0,3.0,43,0.00,,,0.00,0,weatherlink.com 1.10,2013-02-19 05:48:00,
2013-02-18 23:03:00,19.3,1.0,30.14,ESE,123,0.0,2.0,44,0.00,,,0.00,0,weatherlink.com 1.10,2013-02-19 06:03:00,
2013-02-18 23:18:00,19.2,1.0,30.14,ESE,104,0.0,3.0,45,0.00,,,0.00,0,weatherlink.com 1.10,2013-02-19 06:18:00,
2013-02-18 23:33:00,19.5,0.0,30.14,ESE,115,0.0,3.0,43,0.00,,,0.00,0,weatherlink.com 1.10,2013-02-19 06:33:00,
2013-02-18 23:48:00,20.5,1.0,30.14,ESE,112,0.0,1.0,42,0.00,,,0.00,0,weatherlink.com 1.10,2013-02-19 06:48:00,